createdAt,value
2022-09-27T00:01:09.786Z,13.62
2022-09-27T00:03:38.526Z,13.59
2022-09-27T00:06:28.433Z,13.56
2022-09-27T00:09:01.442Z,13.57
2022-09-27T00:11:40.539Z,13.54
2022-09-27T00:14:08.780Z,13.55
2022-09-27T00:16:38.951Z,13.55
2022-09-27T00:19:10.522Z,13.54
2022-09-27T00:21:38.097Z,13.54
2022-09-27T00:24:05.543Z,13.55
2022-09-27T00:26:33.253Z,13.55
2022-09-27T00:29:00.575Z,13.55
2022-09-27T00:31:30.699Z,13.53
2022-09-27T00:34:00.426Z,13.55
2022-09-27T00:36:29.013Z,13.51
2022-09-27T00:38:57.493Z,13.50
2022-09-27T00:41:31.273Z,13.51
2022-09-27T00:44:01.643Z,13.51
2022-09-27T00:46:37.953Z,13.51
2022-09-27T00:49:31.568Z,13.52
2022-09-27T00:52:08.051Z,13.52
2022-09-27T00:54:40.559Z,13.43
2022-09-27T00:57:08.997Z,13.45
2022-09-27T00:59:44.162Z,13.40
2022-09-27T01:02:12.219Z,13.38
2022-09-27T01:04:41.494Z,13.35
2022-09-27T01:07:09.057Z,13.32
2022-09-27T01:09:39.820Z,13.31
2022-09-27T01:12:18.711Z,13.28
2022-09-27T01:15:12.940Z,13.25
2022-09-27T01:18:16.760Z,13.22
2022-09-27T01:20:59.289Z,13.16
2022-09-27T01:23:49.344Z,13.14
2022-09-27T01:26:43.881Z,13.15
2022-09-27T01:29:42.013Z,13.17
2022-09-27T01:32:33.316Z,13.13
2022-09-27T01:35:22.592Z,13.12
2022-09-27T01:38:09.615Z,13.15
2022-09-27T01:41:14.160Z,13.16
2022-09-27T01:43:59.993Z,13.17
2022-09-27T01:46:40.526Z,13.15
2022-09-27T01:49:17.530Z,13.15
2022-09-27T01:52:07.924Z,13.14
2022-09-27T01:54:51.961Z,13.13
2022-09-27T01:57:24.142Z,13.11
2022-09-27T02:00:00.126Z,13.10
2022-09-27T02:02:52.291Z,13.09
2022-09-27T02:05:55.697Z,13.07
2022-09-27T02:08:41.174Z,13.01
2022-09-27T02:11:15.765Z,12.99
2022-09-27T02:13:53.347Z,12.97
2022-09-27T02:16:54.647Z,12.97
2022-09-27T02:19:45.421Z,12.96
2022-09-27T02:22:28.898Z,12.94
2022-09-27T02:25:09.289Z,12.93
2022-09-27T02:27:43.214Z,12.91
2022-09-27T02:30:15.129Z,12.91
2022-09-27T02:32:44.034Z,12.86
2022-09-27T02:35:17.640Z,12.84
2022-09-27T02:37:46.954Z,12.81
2022-09-27T02:40:14.638Z,12.78
2022-09-27T02:42:43.986Z,12.71
2022-09-27T02:45:13.100Z,12.67
2022-09-27T02:47:56.246Z,12.68
2022-09-27T02:50:38.773Z,12.66
2022-09-27T02:53:28.983Z,12.64
2022-09-27T02:56:07.788Z,12.58
2022-09-27T02:58:59.273Z,12.58
2022-09-27T03:01:35.339Z,12.59
2022-09-27T03:04:18.053Z,12.57
2022-09-27T03:06:47.734Z,12.56
2022-09-27T03:09:24.759Z,12.56
2022-09-27T03:11:52.127Z,12.54
2022-09-27T03:14:19.503Z,12.53
2022-09-27T03:16:47.149Z,12.52
2022-09-27T03:19:14.675Z,12.51
2022-09-27T03:21:42.075Z,12.50
2022-09-27T03:24:10.911Z,12.52
2022-09-27T03:26:38.021Z,12.49
2022-09-27T03:29:05.130Z,12.47
2022-09-27T03:31:32.089Z,12.43
2022-09-27T03:33:59.504Z,12.41
2022-09-27T03:36:26.354Z,12.37
2022-09-27T03:38:55.026Z,12.35
2022-09-27T03:41:22.291Z,12.35
2022-09-27T03:43:49.553Z,12.33
2022-09-27T03:46:16.802Z,12.29
2022-09-27T03:48:44.096Z,12.26
2022-09-27T03:51:13.137Z,12.26
2022-09-27T03:53:40.275Z,12.26
2022-09-27T03:56:07.766Z,12.26
2022-09-27T03:58:35.075Z,12.26
2022-09-27T04:01:02.496Z,12.27
2022-09-27T04:03:29.907Z,12.28
2022-09-27T04:05:57.203Z,12.29
2022-09-27T04:08:24.588Z,12.30
2022-09-27T04:10:52.279Z,12.31
2022-09-27T04:13:19.929Z,12.32
2022-09-27T04:15:51.872Z,12.27
2022-09-27T04:18:19.803Z,12.22
2022-09-27T04:20:47.249Z,12.22
2022-09-27T04:23:14.152Z,12.21
2022-09-27T04:25:41.385Z,12.21
2022-09-27T04:28:08.670Z,12.20
2022-09-27T04:30:35.950Z,12.18
2022-09-27T04:33:02.855Z,12.19
2022-09-27T04:35:48.643Z,12.20
2022-09-27T04:38:15.883Z,12.22
2022-09-27T04:40:43.238Z,12.23
2022-09-27T04:43:10.558Z,12.26
2022-09-27T04:45:37.896Z,12.25
2022-09-27T04:48:05.412Z,12.25
2022-09-27T04:50:35.881Z,12.25
2022-09-27T04:53:03.862Z,12.25
2022-09-27T04:55:31.030Z,12.22
2022-09-27T04:57:58.424Z,12.24
2022-09-27T05:00:25.994Z,12.20
2022-09-27T05:02:53.257Z,12.17
2022-09-27T05:05:20.765Z,12.17
2022-09-27T05:07:48.249Z,12.21
2022-09-27T05:10:15.585Z,12.21
2022-09-27T05:12:43.396Z,12.20
2022-09-27T05:15:11.088Z,12.21
2022-09-27T05:17:38.394Z,12.23
2022-09-27T05:20:06.182Z,12.26
2022-09-27T05:22:33.485Z,12.28
2022-09-27T05:25:01.202Z,12.31
2022-09-27T05:27:28.554Z,12.33
2022-09-27T05:29:57.166Z,12.37
2022-09-27T05:32:24.312Z,12.37
2022-09-27T05:35:03.635Z,12.42
2022-09-27T05:37:31.869Z,12.46
2022-09-27T05:39:59.150Z,12.43
2022-09-27T05:42:26.500Z,12.43
2022-09-27T05:44:59.635Z,12.45
2022-09-27T05:47:27.073Z,12.42
2022-09-27T05:49:55.758Z,12.44
2022-09-27T05:52:23.345Z,12.47
2022-09-27T05:55:04.980Z,12.49
2022-09-27T05:57:32.526Z,12.52
2022-09-27T06:00:00.920Z,12.52
2022-09-27T06:02:28.580Z,12.55
2022-09-27T06:05:05.379Z,12.57
2022-09-27T06:07:32.866Z,12.60
2022-09-27T06:10:00.114Z,12.59
2022-09-27T06:12:27.464Z,12.63
2022-09-27T06:14:58.335Z,12.64
2022-09-27T06:17:25.496Z,12.65
2022-09-27T06:19:52.762Z,12.67
2022-09-27T06:22:20.051Z,12.70
2022-09-27T06:24:46.869Z,12.71
2022-09-27T06:27:13.965Z,12.71
2022-09-27T06:29:41.210Z,12.76
2022-09-27T06:32:08.393Z,12.74
2022-09-27T06:34:37.063Z,12.74
2022-09-27T06:37:04.432Z,12.78
2022-09-27T06:39:33.886Z,12.81
2022-09-27T06:42:01.408Z,12.83
2022-09-27T06:44:28.714Z,12.85
2022-09-27T06:46:56.094Z,12.88
2022-09-27T06:49:23.352Z,12.88
2022-09-27T06:51:51.213Z,12.88
2022-09-27T06:54:19.262Z,13.04
2022-09-27T06:56:53.747Z,13.10
2022-09-27T06:59:39.345Z,13.18
2022-09-27T07:02:06.987Z,13.17
2022-09-27T07:04:45.161Z,13.16
2022-09-27T07:07:12.631Z,13.11
2022-09-27T07:09:40.648Z,13.08
2022-09-27T07:12:07.891Z,13.08
2022-09-27T07:14:36.076Z,13.11
2022-09-27T07:17:03.966Z,13.09
2022-09-27T07:19:31.330Z,13.11
2022-09-27T07:21:58.797Z,13.11
2022-09-27T07:24:26.059Z,13.10
2022-09-27T07:26:53.293Z,13.13
2022-09-27T07:29:20.439Z,13.15
2022-09-27T07:31:47.846Z,13.17
2022-09-27T07:34:18.622Z,13.21
2022-09-27T07:36:45.892Z,13.21
2022-09-27T07:39:13.097Z,13.24
2022-09-27T07:41:40.896Z,13.26
2022-09-27T07:44:08.410Z,13.26
2022-09-27T07:46:35.249Z,13.25
2022-09-27T07:49:04.742Z,13.27
2022-09-27T07:51:31.663Z,13.32
2022-09-27T07:53:58.582Z,13.33
2022-09-27T07:56:25.424Z,13.31
2022-09-27T07:58:52.210Z,13.28
2022-09-27T08:01:19.496Z,13.30
2022-09-27T08:03:46.429Z,13.35
2022-09-27T08:06:13.413Z,13.40
2022-09-27T08:08:41.748Z,13.42
2022-09-27T08:11:16.755Z,13.44
2022-09-27T08:13:44.830Z,13.43
2022-09-27T08:16:18.526Z,13.44
2022-09-27T08:18:45.448Z,13.47
2022-09-27T08:21:13.301Z,13.52
2022-09-27T08:23:40.347Z,13.53
2022-09-27T08:26:07.198Z,13.57
2022-09-27T08:28:34.028Z,13.61
2022-09-27T08:31:01.127Z,13.65
2022-09-27T08:33:32.147Z,13.65
2022-09-27T08:36:02.073Z,13.66
2022-09-27T08:38:29.361Z,13.68
2022-09-27T08:41:12.830Z,13.70
2022-09-27T08:44:05.575Z,13.74
2022-09-27T08:46:54.310Z,13.77
2022-09-27T08:49:41.774Z,13.77
2022-09-27T08:52:30.582Z,13.79
2022-09-27T08:55:01.908Z,13.81
2022-09-27T08:57:28.882Z,13.86
2022-09-27T09:00:06.265Z,13.89
2022-09-27T09:02:35.068Z,13.93
2022-09-27T09:05:13.419Z,13.97
2022-09-27T09:08:31.030Z,14.00
2022-09-27T09:11:49.183Z,14.07
2022-09-27T09:14:30.986Z,14.08
2022-09-27T09:17:43.918Z,14.07
2022-09-27T09:20:20.186Z,14.08
2022-09-27T09:23:03.822Z,14.08
2022-09-27T09:25:46.580Z,14.11
2022-09-27T09:28:28.955Z,14.15
2022-09-27T09:31:25.487Z,14.13
2022-09-27T09:34:05.773Z,14.17
2022-09-27T09:36:47.892Z,14.20
2022-09-27T09:39:23.863Z,14.25
2022-09-27T09:42:09.505Z,14.28
2022-09-27T09:44:46.212Z,14.33
2022-09-27T09:47:28.057Z,14.35
2022-09-27T09:50:01.445Z,14.34
2022-09-27T09:52:39.906Z,14.37
2022-09-27T09:55:19.358Z,14.41
2022-09-27T09:57:56.547Z,14.43
2022-09-27T10:00:24.085Z,14.47
2022-09-27T10:02:54.949Z,14.47
2022-09-27T10:05:24.711Z,14.49
2022-09-27T10:07:55.050Z,14.51
2022-09-27T10:10:22.401Z,14.53
2022-09-27T10:12:50.162Z,14.57
2022-09-27T10:15:20.968Z,14.59
2022-09-27T10:17:51.301Z,14.60
2022-09-27T10:20:36.113Z,14.64
2022-09-27T10:23:25.384Z,14.70
2022-09-27T10:25:56.886Z,14.72
2022-09-27T10:28:34.476Z,14.74
2022-09-27T10:31:04.294Z,14.76
2022-09-27T10:33:32.063Z,14.78
2022-09-27T10:36:01.132Z,14.76
2022-09-27T10:38:36.135Z,14.76
2022-09-27T10:41:26.211Z,14.77
2022-09-27T10:43:53.081Z,14.77
2022-09-27T10:46:30.587Z,14.70
2022-09-27T10:49:21.170Z,14.53
2022-09-27T10:51:53.677Z,14.39
2022-09-27T10:54:29.456Z,14.27
2022-09-27T10:57:05.337Z,14.20
2022-09-27T10:59:40.771Z,14.17
2022-09-27T11:02:21.076Z,14.11
2022-09-27T11:05:15.328Z,14.09
2022-09-27T11:07:57.691Z,14.06
2022-09-27T11:10:36.262Z,14.03
2022-09-27T11:13:19.023Z,14.02
2022-09-27T11:15:45.854Z,14.01
2022-09-27T11:18:27.813Z,14.00
2022-09-27T11:21:19.123Z,13.98
2022-09-27T11:24:08.365Z,13.95
2022-09-27T11:27:05.994Z,13.92
2022-09-27T11:30:03.599Z,13.91
2022-09-27T11:32:55.528Z,13.91
2022-09-27T11:35:50.225Z,13.93
2022-09-27T11:38:52.116Z,13.95
2022-09-27T11:41:33.591Z,13.99
2022-09-27T11:44:19.990Z,14.01
2022-09-27T11:47:21.553Z,14.01
2022-09-27T11:50:25.982Z,14.03
2022-09-27T11:53:19.327Z,14.07
2022-09-27T11:55:53.397Z,14.12
2022-09-27T11:58:39.937Z,14.10
2022-09-27T12:01:39.281Z,14.09
2022-09-27T12:04:12.192Z,14.14
2022-09-27T12:06:47.169Z,14.17
2022-09-27T12:09:23.161Z,14.20
2022-09-27T12:11:55.038Z,14.27
2022-09-27T12:14:45.845Z,14.31
2022-09-27T12:17:18.702Z,14.33
2022-09-27T12:19:50.639Z,14.34
2022-09-27T12:22:40.278Z,14.31
2022-09-27T12:25:20.537Z,14.30
2022-09-27T12:27:53.999Z,14.35
2022-09-27T12:30:20.789Z,14.39
2022-09-27T12:33:15.543Z,14.36
2022-09-27T12:35:55.308Z,14.38
2022-09-27T12:38:22.053Z,14.39
2022-09-27T12:40:53.742Z,14.41
2022-09-27T12:43:20.571Z,14.51
2022-09-27T12:46:24.577Z,14.58
2022-09-27T12:49:05.808Z,14.61
2022-09-27T12:51:41.710Z,14.64
2022-09-27T12:54:35.029Z,14.68
2022-09-27T12:57:20.583Z,14.68
2022-09-27T13:00:25.401Z,14.65
2022-09-27T13:03:15.423Z,14.66
2022-09-27T13:06:24.584Z,14.63
2022-09-27T13:09:09.940Z,14.56
2022-09-27T13:12:02.056Z,14.54
2022-09-27T13:14:34.768Z,14.45
2022-09-27T13:17:01.799Z,14.35
2022-09-27T13:19:40.023Z,14.26
2022-09-27T13:22:31.444Z,14.17
2022-09-27T13:25:03.791Z,14.08
2022-09-27T13:27:30.832Z,14.00
2022-09-27T13:30:12.784Z,13.93
2022-09-27T13:32:41.113Z,13.91
2022-09-27T13:35:24.534Z,13.92
2022-09-27T13:38:01.303Z,13.92
2022-09-27T13:40:37.175Z,13.93
2022-09-27T13:43:22.104Z,13.94
2022-09-27T13:46:08.051Z,13.97
2022-09-27T13:48:37.925Z,14.03
2022-09-27T13:51:25.269Z,14.05
2022-09-27T13:54:10.285Z,14.07
2022-09-27T13:56:38.362Z,14.10
2022-09-27T13:59:10.606Z,14.13
2022-09-27T14:01:42.806Z,14.19
2022-09-27T14:04:28.594Z,14.25
2022-09-27T14:07:01.980Z,14.32
2022-09-27T14:09:34.963Z,14.41
2022-09-27T14:12:16.690Z,14.47
2022-09-27T14:15:00.818Z,14.58
2022-09-27T14:17:27.986Z,14.68
2022-09-27T14:19:54.843Z,14.77
2022-09-27T14:22:23.590Z,14.84
2022-09-27T14:25:16.847Z,14.91
2022-09-27T14:27:43.597Z,14.97
2022-09-27T14:30:22.609Z,14.97
2022-09-27T14:32:58.710Z,15.00
2022-09-27T14:35:45.821Z,15.05
2022-09-27T14:38:46.700Z,15.06
2022-09-27T14:41:08.607Z,15.12
2022-09-27T14:43:37.717Z,15.14
2022-09-27T14:46:07.360Z,15.20
2022-09-27T14:48:37.489Z,15.23
2022-09-27T14:51:14.371Z,15.28
2022-09-27T14:53:45.438Z,15.33
2022-09-27T14:56:27.674Z,15.37
2022-09-27T14:59:02.684Z,15.38
2022-09-27T15:01:30.615Z,15.38
2022-09-27T15:04:05.983Z,15.39
2022-09-27T15:06:35.702Z,15.36
2022-09-27T15:09:04.685Z,15.36
2022-09-27T15:11:33.473Z,15.34
2022-09-27T15:14:02.285Z,15.25
2022-09-27T15:16:31.642Z,15.09
2022-09-27T15:19:27.096Z,14.90
2022-09-27T15:21:54.558Z,14.79
2022-09-27T15:24:47.796Z,14.67
2022-09-27T15:27:18.342Z,14.58
2022-09-27T15:29:54.928Z,14.48
2022-09-27T15:32:27.527Z,14.40
2022-09-27T15:35:07.701Z,14.39
2022-09-27T15:37:39.392Z,14.38
2022-09-27T15:40:18.798Z,14.40
2022-09-27T15:42:57.663Z,14.37
2022-09-27T15:45:33.941Z,14.37
2022-09-27T15:48:27.603Z,14.39
2022-09-27T15:50:54.435Z,14.38
2022-09-27T15:53:33.535Z,14.39
2022-09-27T15:56:02.206Z,14.37
2022-09-27T15:58:29.834Z,14.38
2022-09-27T16:00:59.523Z,14.36
2022-09-27T16:03:27.289Z,14.38
2022-09-27T16:05:56.383Z,14.41
2022-09-27T16:08:24.325Z,14.42
2022-09-27T16:10:53.552Z,14.44
2022-09-27T16:13:20.414Z,14.48
2022-09-27T16:15:48.027Z,14.49
2022-09-27T16:18:15.003Z,14.49
2022-09-27T16:20:42.723Z,14.48
2022-09-27T16:23:09.777Z,14.47
2022-09-27T16:25:36.695Z,14.48
2022-09-27T16:28:05.564Z,14.50
2022-09-27T16:30:33.471Z,14.50
2022-09-27T16:33:01.529Z,14.54
2022-09-27T16:35:28.708Z,14.55
2022-09-27T16:37:55.543Z,14.53
2022-09-27T16:40:25.351Z,14.54
2022-09-27T16:42:52.661Z,14.53
2022-09-27T16:45:19.952Z,14.51
2022-09-27T16:47:47.748Z,14.52
2022-09-27T16:50:34.366Z,14.51
2022-09-27T16:53:01.835Z,14.49
2022-09-27T16:55:29.772Z,14.49
2022-09-27T16:58:00.310Z,14.49
2022-09-27T17:00:28.072Z,14.49
2022-09-27T17:02:55.142Z,14.49
2022-09-27T17:05:28.518Z,14.50
2022-09-27T17:07:55.537Z,14.49
2022-09-27T17:10:23.625Z,14.51
2022-09-27T17:12:50.941Z,14.51
2022-09-27T17:15:18.308Z,14.52
2022-09-27T17:17:49.880Z,14.51
2022-09-27T17:20:18.043Z,14.49
2022-09-27T17:22:45.200Z,14.50
2022-09-27T17:25:12.211Z,14.52
2022-09-27T17:27:39.193Z,14.50
2022-09-27T17:30:07.250Z,14.46
2022-09-27T17:32:35.126Z,14.44
2022-09-27T17:35:09.953Z,14.41
2022-09-27T17:37:37.156Z,14.37
2022-09-27T17:40:06.006Z,14.30
2022-09-27T17:42:34.550Z,14.27
2022-09-27T17:45:04.665Z,14.25
2022-09-27T17:47:50.084Z,14.22
2022-09-27T17:50:27.424Z,14.23
2022-09-27T17:52:55.313Z,14.23
2022-09-27T17:55:23.285Z,14.21
2022-09-27T17:57:50.827Z,14.23
2022-09-27T18:00:21.327Z,14.22
2022-09-27T18:02:49.249Z,14.21
2022-09-27T18:05:18.629Z,14.18
2022-09-27T18:07:45.547Z,14.18
2022-09-27T18:10:12.535Z,14.18
2022-09-27T18:12:59.374Z,14.17
2022-09-27T18:15:26.865Z,14.15
2022-09-27T18:17:57.945Z,14.14
2022-09-27T18:20:27.955Z,14.11
2022-09-27T18:22:54.962Z,14.08
2022-09-27T18:25:25.368Z,14.08
2022-09-27T18:27:53.215Z,14.05
2022-09-27T18:30:20.054Z,14.01
2022-09-27T18:32:46.906Z,14.00
2022-09-27T18:35:15.206Z,13.97
2022-09-27T18:37:47.061Z,13.92
2022-09-27T18:40:14.890Z,13.90
2022-09-27T18:42:41.964Z,13.88
2022-09-27T18:45:09.261Z,13.84
2022-09-27T18:47:36.312Z,13.76
2022-09-27T18:50:03.381Z,13.77
2022-09-27T18:52:33.581Z,13.77
2022-09-27T18:55:06.220Z,13.72
2022-09-27T18:57:34.239Z,13.71
2022-09-27T19:00:04.559Z,13.70
2022-09-27T19:09:41.933Z,13.75
2022-09-27T19:12:08.910Z,13.71
2022-09-27T19:14:35.749Z,13.71
2022-09-27T19:17:02.790Z,13.70
2022-09-27T19:19:29.694Z,13.70
2022-09-27T19:21:56.862Z,13.70
2022-09-27T19:24:23.845Z,13.73
2022-09-27T19:26:56.329Z,13.73
2022-09-27T19:29:23.209Z,13.71
2022-09-27T19:31:50.141Z,13.71
2022-09-27T19:34:17.098Z,13.67
2022-09-27T19:36:44.347Z,13.65
2022-09-27T19:39:22.825Z,13.63
2022-09-27T19:41:50.480Z,13.63
2022-09-27T19:44:17.868Z,13.62
2022-09-27T19:46:46.336Z,13.60
2022-09-27T19:49:13.647Z,13.58
2022-09-27T19:51:40.990Z,13.56
2022-09-27T19:54:11.014Z,13.51
2022-09-27T19:56:38.300Z,13.48
2022-09-27T19:59:14.670Z,13.43
2022-09-27T20:01:42.342Z,13.40
2022-09-27T20:04:13.292Z,13.39
2022-09-27T20:06:40.851Z,13.36
2022-09-27T20:09:08.223Z,13.35
2022-09-27T20:11:36.174Z,13.34
2022-09-27T20:14:03.456Z,13.33
2022-09-27T20:16:32.314Z,13.32
2022-09-27T20:19:01.346Z,13.30
2022-09-27T20:21:34.737Z,13.30
2022-09-27T20:24:03.143Z,13.31
2022-09-27T20:26:32.718Z,13.29
2022-09-27T20:29:02.600Z,13.26
2022-09-27T20:31:37.165Z,13.25
2022-09-27T20:34:07.242Z,13.23
2022-09-27T20:36:39.679Z,13.23
2022-09-27T20:39:10.987Z,13.21
2022-09-27T20:41:43.187Z,13.20
2022-09-27T20:44:12.497Z,13.18
2022-09-27T20:46:40.547Z,13.17
2022-09-27T20:49:09.899Z,13.17
2022-09-27T20:51:39.539Z,13.18
2022-09-27T20:54:10.460Z,13.20
2022-09-27T20:56:48.269Z,13.18
2022-09-27T20:59:19.048Z,13.18
2022-09-27T21:01:49.299Z,13.12
2022-09-27T21:04:17.875Z,13.11
2022-09-27T21:06:45.196Z,13.10
2022-09-27T21:09:18.830Z,13.08
2022-09-27T21:11:59.886Z,13.06
2022-09-27T21:14:27.532Z,13.02
2022-09-27T21:16:55.390Z,13.01
2022-09-27T21:19:23.896Z,13.01
2022-09-27T21:21:54.043Z,13.00
2022-09-27T21:24:21.312Z,12.98
2022-09-27T21:26:48.237Z,12.92
2022-09-27T21:29:15.211Z,12.88
2022-09-27T21:31:43.234Z,12.87
2022-09-27T21:34:10.230Z,12.78
2022-09-27T21:36:38.838Z,12.75
2022-09-27T21:39:08.844Z,12.71
2022-09-27T21:41:36.197Z,12.65
2022-09-27T21:44:04.762Z,12.65
2022-09-27T21:46:31.737Z,12.65
2022-09-27T21:49:00.130Z,12.61
2022-09-27T21:51:29.643Z,12.60
2022-09-27T21:54:01.608Z,12.60
2022-09-27T21:56:30.856Z,12.59
2022-09-27T21:58:58.004Z,12.56
2022-09-27T22:01:31.216Z,12.59
2022-09-27T22:03:58.982Z,12.60
2022-09-27T22:06:31.514Z,12.59
2022-09-27T22:09:00.296Z,12.57
2022-09-27T22:11:30.233Z,12.54
2022-09-27T22:13:57.606Z,12.54
2022-09-27T22:16:27.095Z,12.53
2022-09-27T22:18:55.645Z,12.51
2022-09-27T22:21:26.556Z,12.48
2022-09-27T22:23:58.266Z,12.50
2022-09-27T22:26:27.997Z,12.50
2022-09-27T22:28:55.559Z,12.46
2022-09-27T22:31:23.379Z,12.46
2022-09-27T22:34:16.313Z,12.46
2022-09-27T22:36:43.919Z,12.44
2022-09-27T22:39:10.782Z,12.43
2022-09-27T22:41:43.296Z,12.39
2022-09-27T22:44:13.391Z,12.38
2022-09-27T22:46:44.584Z,12.37
2022-09-27T22:49:16.255Z,12.33
2022-09-27T22:51:43.157Z,12.33
2022-09-27T22:54:09.936Z,12.31
2022-09-27T22:56:36.777Z,12.33
2022-09-27T22:59:03.648Z,12.37
2022-09-27T23:01:31.661Z,12.36
2022-09-27T23:03:58.908Z,12.37
2022-09-27T23:06:25.786Z,12.36
2022-09-27T23:08:54.035Z,12.37
2022-09-27T23:11:23.114Z,12.36
2022-09-27T23:13:51.187Z,12.34
2022-09-27T23:16:21.355Z,12.32
2022-09-27T23:18:48.137Z,12.33
2022-09-27T23:21:16.243Z,12.33
2022-09-27T23:23:45.890Z,12.31
2022-09-27T23:26:15.336Z,12.32
2022-09-27T23:28:42.923Z,12.32
2022-09-27T23:31:14.914Z,12.32
2022-09-27T23:33:43.975Z,12.30
2022-09-27T23:36:17.658Z,12.30
2022-09-27T23:38:46.681Z,12.28
2022-09-27T23:41:15.164Z,12.26
2022-09-27T23:43:42.232Z,12.23
2022-09-27T23:46:09.424Z,12.19
2022-09-27T23:48:37.296Z,12.17
2022-09-27T23:51:06.319Z,12.16
2022-09-27T23:53:33.377Z,12.12
2022-09-27T23:56:02.900Z,12.11
2022-09-27T23:58:43.478Z,12.09
